createdAt,value
2018-03-26T00:01:17.194Z,66.80
2018-03-26T00:06:19.818Z,66.70
2018-03-26T00:11:22.450Z,66.90
2018-03-26T00:16:25.083Z,67.20
2018-03-26T00:21:27.701Z,67.20
2018-03-26T00:26:31.093Z,67.20
2018-03-26T00:31:33.717Z,67.10
2018-03-26T00:36:37.135Z,68.90
2018-03-26T00:41:39.762Z,68.80
2018-03-26T00:46:42.384Z,69.20
2018-03-26T00:51:45.788Z,69.20
2018-03-26T05:29:57.445Z,79.20
2018-03-26T05:35:00.065Z,79.20
2018-03-26T05:40:02.734Z,78.90
2018-03-26T05:45:05.356Z,78.60
2018-03-26T05:50:07.978Z,78.10
2018-03-26T05:55:10.603Z,78.20
2018-03-26T06:00:13.237Z,77.80
2018-03-26T06:05:15.885Z,77.70
2018-03-26T06:10:19.280Z,77.50
2018-03-26T06:15:23.218Z,77.50
2018-03-26T06:20:25.845Z,77.30
2018-03-26T06:25:29.251Z,76.80
2018-03-26T06:30:31.919Z,76.70
2018-03-26T06:35:34.545Z,76.70
2018-03-26T06:40:37.169Z,77.40
2018-03-26T06:45:39.793Z,77.40
2018-03-26T06:50:43.202Z,77.40
2018-03-26T06:55:45.832Z,77.40
2018-03-26T07:00:48.456Z,77.50
2018-03-26T07:05:51.150Z,77.50
2018-03-26T07:10:54.539Z,76.90
2018-03-26T07:15:57.174Z,77.00
2018-03-26T07:20:59.797Z,77.00
2018-03-26T07:26:02.430Z,77.10
2018-03-26T07:31:05.053Z,77.10
2018-03-26T07:36:08.442Z,77.70
2018-03-26T07:41:11.094Z,76.90
2018-03-26T07:46:13.724Z,77.70
2018-03-26T07:51:16.381Z,76.80
2018-03-26T07:56:19.009Z,76.60
2018-03-26T08:01:21.663Z,76.60
2018-03-26T08:06:25.058Z,76.30
2018-03-26T08:11:27.721Z,76.20
2018-03-26T08:16:30.331Z,76.50
2018-03-26T08:21:32.962Z,77.00
2018-03-26T08:26:36.348Z,77.00
2018-03-26T08:31:38.976Z,77.00
2018-03-26T08:36:42.381Z,77.50
2018-03-26T08:41:45.011Z,77.40
2018-03-26T08:46:47.629Z,77.30
2018-03-26T08:51:50.263Z,77.60
2018-03-26T08:56:52.887Z,78.90
2018-03-26T09:01:57.006Z,78.30
2018-03-26T09:06:59.647Z,78.60
2018-03-26T09:12:02.304Z,78.60
2018-03-26T09:17:05.715Z,78.60
2018-03-26T09:22:08.350Z,78.50
2018-03-26T09:27:10.974Z,78.90
2018-03-26T09:32:16.614Z,79.10
2018-03-26T09:37:19.279Z,79.10
2018-03-26T09:42:21.929Z,79.40
2018-03-26T09:47:24.549Z,79.80
2018-03-26T09:52:27.938Z,81.00
2018-03-26T09:57:30.569Z,80.90
2018-03-26T10:02:34.638Z,81.20
2018-03-26T10:07:38.362Z,81.70
2018-03-26T10:12:42.191Z,81.70
2018-03-26T10:17:44.907Z,82.00
2018-03-26T10:22:47.534Z,82.10
2018-03-26T10:27:50.181Z,82.20
2018-03-26T10:32:52.821Z,82.40
2018-03-26T10:37:55.466Z,82.60
2018-03-26T10:42:58.102Z,82.80
2018-03-26T10:48:00.757Z,82.90
2018-03-26T10:53:03.387Z,82.90
2018-03-26T10:58:06.917Z,83.10
2018-03-26T11:03:09.547Z,83.20
2018-03-26T11:08:12.199Z,83.20
2018-03-26T11:13:14.856Z,83.10
2018-03-26T11:18:17.486Z,83.00
2018-03-26T11:23:20.162Z,83.00
2018-03-26T11:28:22.838Z,83.20
2018-03-26T11:33:25.498Z,83.30
2018-03-26T11:38:28.124Z,83.40
2018-03-26T11:43:30.745Z,83.70
2018-03-26T11:48:33.366Z,83.90
2018-03-26T11:53:36.016Z,84.00
2018-03-26T11:58:38.638Z,83.80
2018-03-26T12:03:41.266Z,83.30
2018-03-26T12:08:43.889Z,82.70
2018-03-26T12:13:46.541Z,82.00
2018-03-26T12:18:49.929Z,80.50
2018-03-26T12:24:04.504Z,80.40
2018-03-26T12:29:18.943Z,80.30
2018-03-26T12:34:33.551Z,80.30
2018-03-26T12:39:36.178Z,79.80
2018-03-26T12:44:51.915Z,79.10
2018-03-26T12:49:54.533Z,78.40
2018-03-26T12:54:57.914Z,77.50
2018-03-26T13:00:00.543Z,77.50
2018-03-26T13:05:03.168Z,76.70
2018-03-26T13:10:05.875Z,75.40
2018-03-26T13:15:08.502Z,75.20
2018-03-26T13:20:11.126Z,74.90
2018-03-26T13:25:13.746Z,74.70
2018-03-26T13:30:16.369Z,72.80
2018-03-26T13:35:18.986Z,71.60
2018-03-26T13:40:23.313Z,68.30
2018-03-26T13:45:27.848Z,68.20
2018-03-26T13:50:31.229Z,68.20
2018-03-26T13:55:35.106Z,67.10
2018-03-26T14:00:38.500Z,66.70
2018-03-26T14:05:41.417Z,66.70
2018-03-26T14:10:56.803Z,62.50
2018-03-26T14:16:13.008Z,61.60
2018-03-26T14:21:15.646Z,61.60
2018-03-26T14:26:18.273Z,60.80
2018-03-26T14:31:21.959Z,60.60
2018-03-26T14:36:24.585Z,59.10
2018-03-26T14:41:28.744Z,58.90
2018-03-26T14:46:32.504Z,58.00
2018-03-26T14:51:35.893Z,57.70
2018-03-26T14:56:38.537Z,57.70
2018-03-26T15:01:41.162Z,56.80
2018-03-26T15:06:44.592Z,56.80
2018-03-26T15:11:48.012Z,57.30
2018-03-26T15:16:50.632Z,57.20
2018-03-26T15:21:54.049Z,57.30
2018-03-26T15:26:56.674Z,57.10
2018-03-26T15:31:59.296Z,57.20
2018-03-26T15:37:02.685Z,59.50
2018-03-26T15:42:05.298Z,59.50
2018-03-26T15:47:08.883Z,59.00
2018-03-26T15:52:12.268Z,59.00
2018-03-26T15:57:14.898Z,59.00
2018-03-26T16:02:17.530Z,60.60
2018-03-26T16:07:20.908Z,64.40
2018-03-26T16:12:24.346Z,63.60
2018-03-26T16:17:27.010Z,63.60
2018-03-26T16:22:30.535Z,66.10
2018-03-26T16:27:33.156Z,66.10
2018-03-26T16:32:37.709Z,67.80
2018-03-26T16:37:41.105Z,71.00
2018-03-26T16:42:44.556Z,70.20
2018-03-26T16:47:47.945Z,71.20
2018-03-26T16:52:51.329Z,72.40
2018-03-26T16:57:53.956Z,72.30
2018-03-26T17:02:56.568Z,73.80
2018-03-26T17:07:59.194Z,74.70
2018-03-26T17:13:01.819Z,75.70
2018-03-26T17:18:04.447Z,76.60
2018-03-26T17:23:07.097Z,77.40
2018-03-26T17:28:09.709Z,78.00
2018-03-26T17:33:13.140Z,78.70
2018-03-26T17:38:16.207Z,78.70
2018-03-26T17:43:18.869Z,79.00
2018-03-26T17:48:21.556Z,79.20
2018-03-26T17:53:24.489Z,79.40
2018-03-26T17:58:27.241Z,79.70
2018-03-26T18:03:29.886Z,80.30
2018-03-26T18:08:33.277Z,80.40
2018-03-26T18:13:35.912Z,81.20
2018-03-26T18:18:38.525Z,80.80
2018-03-26T18:23:42.009Z,81.80
2018-03-26T18:28:45.486Z,82.00
2018-03-26T18:33:48.125Z,81.80
2018-03-26T18:38:51.505Z,82.40
2018-03-26T18:43:54.315Z,82.40
2018-03-26T18:48:57.750Z,82.80
2018-03-26T18:54:00.376Z,82.80
2018-03-26T18:59:03.137Z,82.90
2018-03-26T19:04:05.863Z,80.60
2018-03-26T19:09:08.506Z,80.40
2018-03-26T19:14:11.124Z,79.90
2018-03-26T19:19:13.749Z,79.30
2018-03-26T19:24:16.374Z,79.10
2018-03-26T19:29:19.013Z,79.40
2018-03-26T19:34:21.641Z,79.30
2018-03-26T19:39:24.257Z,79.30
2018-03-26T19:44:26.911Z,79.20
2018-03-26T19:49:30.346Z,79.20
2018-03-26T19:54:33.017Z,79.00
2018-03-26T19:59:35.629Z,79.20
2018-03-26T20:04:38.261Z,79.20
2018-03-26T20:09:40.877Z,79.20
2018-03-26T20:14:44.289Z,79.40
2018-03-26T20:19:46.934Z,79.30
2018-03-26T20:24:49.558Z,79.50
2018-03-26T20:29:54.083Z,79.40
2018-03-26T20:34:56.730Z,79.00
2018-03-26T20:39:59.346Z,79.00
2018-03-26T20:45:02.050Z,78.80
2018-03-26T20:50:04.701Z,78.90
2018-03-26T20:55:07.384Z,78.90
2018-03-26T21:00:10.756Z,79.00
2018-03-26T21:05:13.402Z,79.00
2018-03-26T21:10:16.026Z,78.70
2018-03-26T21:15:18.670Z,79.40
2018-03-26T21:20:22.106Z,79.40
2018-03-26T21:25:24.740Z,79.30
2018-03-26T21:30:27.360Z,79.20
2018-03-26T21:35:30.034Z,79.30
2018-03-26T21:40:32.652Z,79.40
2018-03-26T21:45:35.297Z,79.20
2018-03-26T21:50:37.918Z,79.00
2018-03-26T21:55:41.317Z,78.70
2018-03-26T22:00:43.955Z,78.70
2018-03-26T22:05:46.593Z,78.60
2018-03-26T22:10:49.209Z,78.20
2018-03-26T22:15:51.846Z,78.20
2018-03-26T22:20:54.482Z,77.80
2018-03-26T22:25:57.097Z,78.00
2018-03-26T22:30:59.742Z,78.50
2018-03-26T22:36:02.380Z,78.10
2018-03-26T22:41:04.994Z,77.70
2018-03-26T22:46:08.420Z,78.10
2018-03-26T22:51:11.053Z,77.90
2018-03-26T22:56:13.743Z,79.20
2018-03-26T23:01:16.334Z,79.60
2018-03-26T23:06:18.980Z,79.90
2018-03-26T23:11:21.604Z,79.90
2018-03-26T23:16:24.229Z,80.20
2018-03-26T23:21:26.862Z,80.00
2018-03-26T23:26:29.529Z,79.90
2018-03-26T23:31:32.156Z,80.00
2018-03-26T23:36:34.764Z,80.20
2018-03-26T23:41:37.389Z,80.40
2018-03-26T23:46:40.802Z,79.60
2018-03-26T23:51:43.437Z,79.60
2018-03-26T23:56:46.821Z,81.10
